Raw Spirit — CFN6361 — position and weather

sailwx.info

Track history (hours):
 
Tides and Currents Weather Stations Pressure Air Temp Water Temp Dewpoint Dewpoint Depression Visibility Wind Speed Wind Dir Waves Ship Positions

Raw Spirit

Last reported at 2018-Jun-21 09:17 UTC. Time now 2018-Jun-22 02:00 UTC.
Position N 49°19' W 127°12'.

Length 42 m; draft 5.8 m.

Type: Fishing. MMSI: 316023833.

Date/timePositionNaut miles runAvg speedWind from/ knotsBaromVisibWave heightAir tempDewpointWater temp
2018-Jun-21 09:17N 49°19' W 127°12'1 2.4
2018-Jun-21 08:54N 49°19' W 127°11'1 2.7
2018-Jun-21 08:29N 49°18' W 127°10'2 2.8
2018-Jun-21 07:54N 49°17' W 127°09'1 2.7
2018-Jun-21 07:30N 49°16' W 127°07'0 0.9
2018-Jun-21 06:57N 49°16' W 127°07'3 4.6
2018-Jun-21 06:14N 49°13' W 127°03'17 9.3
2018-Jun-21 04:27N 48°60' W 126°50'4 8.3
2018-Jun-21 03:59N 48°60' W 126°44'4 8.4
2018-Jun-21 03:30N 48°56' W 126°40'5 8.6
2018-Jun-21 02:57N 48°57' W 126°33'1 1.5
2018-Jun-21 02:19N 48°56' W 126°32'2 3.1
2018-Jun-21 01:31N 48°54' W 126°32'0 4.8
2018-Jun-21 01:30N 48°54' W 126°32'1 2.0
2018-Jun-21 00:45N 48°53' W 126°33'5 8.6
2018-Jun-21 00:09N 48°48' W 126°30'3 9.2
2018-Jun-20 23:52N 48°47' W 126°26'3 8.3
2018-Jun-20 23:27N 48°46' W 126°21'4 8.2
2018-Jun-20 23:00N 48°44' W 126°16'4 8.4
2018-Jun-20 22:29N 48°40' W 126°14'2 4.2
2018-Jun-20 22:00N 48°38' W 126°13'1 2.5
2018-Jun-20 21:30N 48°39' W 126°13'1 1.3
2018-Jun-20 20:58N 48°38' W 126°13'7 9.3
2018-Jun-20 20:12N 48°31' W 126°11'2 9.3
2018-Jun-20 20:00N 48°30' W 126°11'6 7.3
2018-Jun-20 19:08N 48°23' W 126°09'0 3.8
2018-Jun-20 19:01N 48°24' W 126°09'2 2.4
2018-Jun-20 18:06N 48°26' W 126°10'2 3.3
2018-Jun-20 17:39N 48°27' W 126°10'11 6.9
2018-Jun-20 16:03N 48°18' W 126°00'4 9.6
2018-Jun-20 15:40N 48°16' W 125°56'2 8.8
2018-Jun-20 15:27N 48°17' W 125°53'4 8.1
2018-Jun-20 15:00N 48°14' W 125°50'6 8.2
2018-Jun-20 14:18N 48°15' W 125°41'3 8.3
2018-Jun-20 13:59N 48°14' W 125°45'1 2.2
2018-Jun-20 13:28N 48°15' W 125°46'2 2.7
2018-Jun-20 12:40N 48°15' W 125°43'1 3.6
2018-Jun-20 12:29N 48°15' W 125°42'1 1.1
2018-Jun-20 11:24N 48°15' W 125°44'2 3.6
2018-Jun-20 10:55N 48°15' W 125°41'2 3.9
2018-Jun-20 10:27N 48°15' W 125°44'3 5.7
2018-Jun-20 09:57N 48°14' W 125°48'2 2.8
2018-Jun-20 09:23N 48°14' W 125°45'3 7.1
2018-Jun-20 08:56N 48°17' W 125°43'2 5.0
2018-Jun-20 08:29N 48°15' W 125°42'1 2.1
2018-Jun-20 07:58N 48°16' W 125°43'4 5.7
2018-Jun-20 07:20N 48°15' W 125°48'2 4.9
2018-Jun-20 06:55N 48°16' W 125°51'3 1.5
2018-Jun-20 05:10N 48°15' W 125°47'1 2.4
2018-Jun-20 04:50N 48°14' W 125°46'2 2.7
2018-Jun-20 04:17N 48°15' W 125°44'1 2.7
2018-Jun-20 04:00N 48°15' W 125°43'2 2.8
2018-Jun-20 03:16N 48°16' W 125°41'2 5.1
2018-Jun-20 02:51N 48°15' W 125°44'1 1.4
2018-Jun-20 02:22N 48°15' W 125°43'1 1.3
2018-Jun-20 01:32N 48°15' W 125°44'0 6.9
2018-Jun-20 01:30N 48°15' W 125°44'3 6.5
2018-Jun-20 00:59N 48°17' W 125°41'1 0.6
2018-Jun-20 00:02N 48°17' W 125°40'0 5.4
2018-Jun-19 23:59N 48°17' W 125°40'2 3.3
2018-Jun-19 23:30N 48°15' W 125°42'2 1.9
2018-Jun-19 22:39N 48°15' W 125°44'1 6.4
2018-Jun-19 22:27N 48°15' W 125°42'3 5.3
2018-Jun-19 21:55N 48°14' W 125°46'3 5.1
2018-Jun-19 21:15N 48°15' W 125°41'2 4.1
2018-Jun-19 20:49N 48°17' W 125°43'4 8.3
2018-Jun-19 20:17N 48°14' W 125°48'1 1.1
2018-Jun-19 19:40N 48°14' W 125°47'1 4.3
2018-Jun-19 19:23N 48°15' W 125°46'3 5.0
2018-Jun-19 18:49N 48°16' W 125°42'4 4.3
2018-Jun-19 17:59N 48°14' W 125°46'1 1.4
2018-Jun-19 16:56N 48°15' W 125°44'3 3.3
2018-Jun-19 16:05N 48°17' W 125°46'0 6.8
2018-Jun-19 16:00N 48°18' W 125°47'4 1.0
2018-Jun-19 12:37N 48°15' W 125°43'1 3.6
2018-Jun-19 12:27N 48°15' W 125°44'1 0.8
2018-Jun-19 11:12N 48°15' W 125°45'1 6.0
2018-Jun-19 11:00N 48°16' W 125°43'0 0.5
2018-Jun-19 10:29N 48°15' W 125°43'2 4.3
2018-Jun-19 09:58N 48°16' W 125°47'1 1.3
2018-Jun-19 09:29N 48°15' W 125°46'2 3.2
2018-Jun-19 09:00N 48°16' W 125°44'2 3.1
2018-Jun-19 08:29N 48°18' W 125°44'6 4.4
2018-Jun-19 07:08N 48°17' W 125°53'3 4.2
2018-Jun-19 06:26N 48°20' W 125°52'1 2.3
2018-Jun-19 05:57N 48°21' W 125°53'2 2.7
2018-Jun-19 05:14N 48°20' W 125°51'1 5.9
2018-Jun-19 05:00N 48°20' W 125°53'2 4.8
2018-Jun-19 04:30N 48°21' W 125°56'1 1.8
2018-Jun-19 04:00N 48°20' W 125°55'1 2.7
2018-Jun-19 03:30N 48°20' W 125°53'2 3.1
2018-Jun-19 03:00N 48°20' W 125°51'2 3.6
2018-Jun-19 02:29N 48°20' W 125°54'3 6.4
2018-Jun-19 02:00N 48°18' W 125°57'4 7.2
2018-Jun-19 01:30N 48°20' W 126°02'4 8.2
2018-Jun-19 01:01N 48°23' W 126°06'1 2.0
2018-Jun-19 00:30N 48°24' W 126°07'2 3.0
2018-Jun-19 00:00N 48°25' W 126°08'0 0.7
2018-Jun-18 23:30N 48°24' W 126°08'4 8.1
2018-Jun-18 23:00N 48°21' W 126°05'3 6.0
2018-Jun-18 22:30N 48°22' W 126°00'1 2.7
2018-Jun-18 22:00N 48°23' W 125°59'1 2.5
2018-Jun-18 21:30N 48°24' W 125°58'4 7.2
2018-Jun-18 21:00N 48°23' W 125°52'1 1.5
2018-Jun-18 20:30N 48°23' W 125°54'1 2.5
2018-Jun-18 20:00N 48°22' W 125°55'1 2.7
2018-Jun-18 19:30N 48°21' W 125°55'1 2.6
2018-Jun-18 19:00N 48°19' W 125°55'0 0.8
2018-Jun-18 18:30N 48°19' W 125°55'2 3.4
2018-Jun-18 18:00N 48°18' W 125°57'1 1.5
2018-Jun-18 17:29N 48°19' W 125°57'1 2.6
2018-Jun-18 17:00N 48°19' W 125°55'1 2.5
2018-Jun-18 16:30N 48°20' W 125°53'2 3.3
2018-Jun-18 16:00N 48°21' W 125°52'2 3.3
2018-Jun-18 15:31N 48°20' W 125°53'3 5.2
2018-Jun-18 14:58N 48°18' W 125°56'4 7.4
2018-Jun-18 14:29N 48°16' W 125°52'2 3.7
2018-Jun-18 14:00N 48°18' W 125°52'2 4.3
2018-Jun-18 13:30N 48°19' W 125°53'2 4.1
2018-Jun-18 13:00N 48°21' W 125°55'0 1.0
2018-Jun-18 12:30N 48°21' W 125°56'1 2.3
2018-Jun-18 11:53N 48°20' W 125°54'2 2.9
2018-Jun-18 11:17N 48°20' W 125°52'1 2.1
2018-Jun-18 11:00N 48°21' W 125°52'1 2.5
2018-Jun-18 10:30N 48°20' W 125°53'0 0.5
2018-Jun-18 10:00N 48°20' W 125°53'3 6.1
2018-Jun-18 09:30N 48°20' W 125°58'5 9.4
2018-Jun-18 09:00N 48°22' W 126°04'3 4.9
2018-Jun-18 08:30N 48°24' W 126°02'4 8.5
2018-Jun-18 08:00N 48°24' W 125°56'3 6.7
2018-Jun-18 07:30N 48°21' W 125°54'2 3.3
2018-Jun-18 07:00N 48°20' W 125°54'4 7.4
2018-Jun-18 06:30N 48°16' W 125°52'1 2.4
2018-Jun-18 06:00N 48°17' W 125°52'3 5.5
2018-Jun-18 05:30N 48°20' W 125°54'1 2.5
2018-Jun-18 05:00N 48°21' W 125°54'1 2.3
2018-Jun-18 04:30N 48°21' W 125°56'1 2.7
2018-Jun-18 03:59N 48°20' W 125°57'1 2.0
2018-Jun-18 03:29N 48°19' W 125°57'1 2.4
2018-Jun-18 03:00N 48°19' W 125°55'1 2.5
2018-Jun-18 02:30N 48°20' W 125°53'2 3.1
2018-Jun-18 01:59N 48°21' W 125°51'1 2.5
2018-Jun-18 01:30N 48°20' W 125°53'2 4.0
2018-Jun-18 01:00N 48°19' W 125°56'2 3.9
2018-Jun-18 00:30N 48°20' W 125°53'3 5.3
2018-Jun-18 00:00N 48°23' W 125°54'1 2.1
2018-Jun-17 23:30N 48°23' W 125°56'3 2.5
2018-Jun-17 22:30N 48°21' W 125°53'1 1.3
2018-Jun-17 22:00N 48°21' W 125°54'3 5.8
2018-Jun-17 21:30N 48°24' W 125°56'1 1.1
2018-Jun-17 21:00N 48°24' W 125°55'3 5.4
2018-Jun-17 20:30N 48°21' W 125°54'2 3.9
2018-Jun-17 20:00N 48°19' W 125°55'3 5.7
2018-Jun-17 19:30N 48°17' W 125°56'4 7.3
2018-Jun-17 19:00N 48°19' W 125°60'4 7.3
2018-Jun-17 18:30N 48°23' W 125°60'3 5.0
2018-Jun-17 17:57N 48°23' W 125°55'3 6.4
2018-Jun-17 17:30N 48°20' W 125°55'2 3.1
2018-Jun-17 17:00N 48°19' W 125°56'1 1.8
2018-Jun-17 16:27N 48°19' W 125°54'1 3.2
2018-Jun-17 16:00N 48°20' W 125°52'2 3.0
2018-Jun-17 15:30N 48°18' W 125°53'2 3.4
2018-Jun-17 15:00N 48°19' W 125°55'5 9.1
2018-Jun-17 14:30N 48°20' W 126°02'4 7.2
2018-Jun-17 14:00N 48°23' W 126°06'1 2.3
2018-Jun-17 13:30N 48°24' W 126°07'1 3.1
2018-Jun-17 13:00N 48°25' W 126°08'1 2.9
2018-Jun-17 12:30N 48°26' W 126°09'1 2.2
2018-Jun-17 12:00N 48°27' W 126°11'4 7.3
2018-Jun-17 11:30N 48°23' W 126°09'3 6.0
2018-Jun-17 11:00N 48°22' W 126°04'510.1
2018-Jun-17 10:30N 48°26' W 125°59'510.9
2018-Jun-17 10:00N 48°30' W 125°53'510.7
2018-Jun-17 09:30N 48°33' W 125°46'510.6
2018-Jun-17 09:00N 48°36' W 125°40'510.9
2018-Jun-17 08:30N 48°39' W 125°33'510.9
2018-Jun-17 08:00N 48°42' W 125°27'611.0
2018-Jun-17 07:30N 48°46' W 125°20'511.0
2018-Jun-17 07:00N 48°48' W 125°13'611.1
2018-Jun-17 06:30N 48°52' W 125°07'1510.8
2018-Jun-17 05:08N 49°03' W 124°51'211.1
2018-Jun-17 05:00N 49°04' W 124°50'511.0
2018-Jun-17 04:30N 49°10' W 124°48'4 8.0
2018-Jun-17 04:00N 49°14' W 124°49'0 0.1
2018-Jun-17 03:30N 49°14' W 124°49'0 0.1
2018-Jun-17 03:00N 49°14' W 124°49'0 0.0
2018-Jun-17 02:28N 49°14' W 124°49'0 0.0
2018-Jun-17 02:00N 49°14' W 124°49'0 0.1
2018-Jun-17 01:30N 49°14' W 124°49'0 0.0
2018-Jun-17 01:00N 49°14' W 124°49'0 0.0
2018-Jun-17 00:30N 49°14' W 124°49'0 0.1
2018-Jun-16 23:57N 49°14' W 124°49'0 0.0
2018-Jun-16 23:30N 49°14' W 124°49'0 0.1
2018-Jun-16 22:57N 49°14' W 124°49'0 0.0
2018-Jun-16 22:30N 49°14' W 124°49'0 0.0
2018-Jun-16 22:00N 49°14' W 124°49'0 0.1
2018-Jun-16 21:30N 49°14' W 124°49'0 0.0
2018-Jun-16 21:00N 49°14' W 124°49'0 0.0
2018-Jun-16 20:29N 49°14' W 124°49'0 0.1
2018-Jun-16 20:00N 49°14' W 124°49'0 0.1
2018-Jun-16 19:30N 49°14' W 124°49'0 0.1
2018-Jun-16 18:59N 49°14' W 124°49'0 0.0
2018-Jun-16 18:29N 49°14' W 124°49'0 0.0
2018-Jun-16 18:00N 49°14' W 124°49'0 0.1
2018-Jun-16 17:30N 49°14' W 124°49'0 0.0
2018-Jun-16 17:00N 49°14' W 124°49'0 0.0
2018-Jun-16 16:30N 49°14' W 124°49'0 0.0
2018-Jun-16 15:58N 49°14' W 124°49'0 0.0
2018-Jun-16 15:30N 49°14' W 124°49'0 0.0
2018-Jun-16 15:00N 49°14' W 124°49'0 0.0
2018-Jun-16 14:29N 49°14' W 124°49'0 0.1
2018-Jun-16 14:00N 49°14' W 124°49'0 0.0
2018-Jun-16 13:30N 49°14' W 124°49'0 0.1
2018-Jun-16 13:00N 49°14' W 124°49'0 0.0
2018-Jun-16 12:30N 49°14' W 124°49'0 0.1
2018-Jun-16 12:00N 49°14' W 124°49'0 0.0
2018-Jun-16 11:30N 49°14' W 124°49'0 0.0
2018-Jun-16 11:00N 49°14' W 124°49'0 0.1
2018-Jun-16 10:30N 49°14' W 124°49'0 0.0
2018-Jun-16 10:00N 49°14' W 124°49'0 0.1
2018-Jun-16 09:30N 49°14' W 124°49'0 0.1
2018-Jun-16 09:00N 49°14' W 124°49'0 0.0
2018-Jun-16 08:30N 49°14' W 124°49'0 0.1
2018-Jun-16 08:00N 49°14' W 124°49'0 0.0
2018-Jun-16 07:30N 49°14' W 124°49'0 0.0
2018-Jun-16 07:00N 49°14' W 124°49'0 0.0
2018-Jun-16 06:30N 49°14' W 124°49'0 0.1
2018-Jun-16 06:00N 49°14' W 124°49'0 0.0
2018-Jun-16 05:30N 49°14' W 124°49'0 0.1
2018-Jun-16 05:00N 49°14' W 124°49'0 0.1
2018-Jun-16 04:30N 49°14' W 124°49'0 0.1
2018-Jun-16 04:00N 49°14' W 124°49'0 0.0
2018-Jun-16 03:30N 49°14' W 124°49'0 0.1
2018-Jun-16 02:59N 49°14' W 124°49'0 0.1
2018-Jun-16 02:30N 49°14' W 124°49'0 0.1
2018-Jun-16 02:00N 49°14' W 124°49'0 0.0
2018-Jun-16 01:30N 49°14' W 124°49'0 0.1
2018-Jun-16 00:58N 49°14' W 124°49'0 0.1
2018-Jun-16 00:30N 49°14' W 124°49'0 0.0
2018-Jun-16 00:00N 49°14' W 124°49'0 0.0
2018-Jun-15 23:30N 49°14' W 124°49'3 5.1
2018-Jun-15 23:00N 49°11' W 124°49'18 9.7
2018-Jun-15 21:08N 48°55' W 125°03'210.6
2018-Jun-15 20:59N 48°54' W 125°04'510.8
2018-Jun-15 20:30N 48°52' W 125°11'611.1
2018-Jun-15 20:00N 48°50' W 125°20'510.4
2018-Jun-15 19:30N 48°50' W 125°27'510.9
2018-Jun-15 19:00N 48°51' W 125°36'510.8
2018-Jun-15 18:30N 48°52' W 125°43'510.4
2018-Jun-15 18:00N 48°54' W 125°51'510.3
2018-Jun-15 17:30N 48°54' W 125°59'510.2
2018-Jun-15 17:00N 48°54' W 126°07'5 9.8
2018-Jun-15 16:30N 48°55' W 126°14'510.3
2018-Jun-15 16:00N 48°56' W 126°22'810.7
2018-Jun-15 15:17N 48°57' W 126°34'5 4.2
2018-Jun-15 14:04N 48°58' W 126°41'0 2.7
2018-Jun-15 13:58N 48°58' W 126°41'2 1.1
2018-Jun-15 12:29N 48°59' W 126°43'6 1.7
2018-Jun-15 09:04N 49°01' W 126°35'1 3.2
2018-Jun-15 08:41N 49°00' W 126°37'3 0.2
2018-Jun-14 21:24N 48°58' W 126°33'4 1.0
2018-Jun-14 17:51N 48°59' W 126°39'1 2.7
2018-Jun-14 17:29N 48°59' W 126°38'0 0.1
2018-Jun-14 16:46N 48°59' W 126°38'4 1.1
2018-Jun-14 12:59N 48°59' W 126°44'3 0.3
2018-Jun-14 01:25N 48°58' W 126°39'3 5.1
2018-Jun-14 00:51N 48°58' W 126°35'2 0.4
2018-Jun-13 18:46N 48°57' W 126°38'2 5.8
2018-Jun-13 18:21N 48°56' W 126°34'2 5.4
2018-Jun-13 17:59N 48°56' W 126°31'3 5.1
2018-Jun-13 17:26N 48°58' W 126°33'3 0.3
2018-Jun-13 09:45N 49°00' W 126°36'5 3.7
2018-Jun-13 08:21N 48°56' W 126°32'0 0.9
2018-Jun-13 07:49N 48°56' W 126°32'3 7.4
2018-Jun-13 07:24N 48°58' W 126°33'4 0.6
2018-Jun-13 00:20N 48°58' W 126°40'2 5.7
2018-Jun-12 23:55N 48°59' W 126°37'1 1.7
2018-Jun-12 23:23N 48°58' W 126°37'2 4.3
2018-Jun-12 23:00N 48°59' W 126°35'5 4.4
2018-Jun-12 21:52N 48°58' W 126°42'3 7.8
2018-Jun-12 21:30N 48°59' W 126°38'3 5.4
2018-Jun-12 20:56N 48°58' W 126°34'1 2.1
2018-Jun-12 20:29N 48°57' W 126°34'1 1.4
2018-Jun-12 20:00N 48°58' W 126°34'1 2.4
2018-Jun-12 19:29N 48°58' W 126°36'2 4.4
2018-Jun-12 18:56N 48°59' W 126°39'4 4.9
2018-Jun-12 18:12N 48°57' W 126°35'1 4.6
2018-Jun-12 18:00N 48°57' W 126°33'1 1.6
2018-Jun-12 17:08N 48°58' W 126°34'4 3.9
2018-Jun-12 16:11N 48°55' W 126°33'1 5.2
2018-Jun-12 16:00N 48°56' W 126°33'2 2.0
2018-Jun-12 14:57N 48°56' W 126°36'1 3.1
2018-Jun-12 14:30N 48°55' W 126°34'1 1.7
2018-Jun-12 13:59N 48°54' W 126°33'4 5.1
2018-Jun-12 13:13N 48°58' W 126°34'2 8.0
2018-Jun-12 12:57N 49°00' W 126°36'1 2.2
2018-Jun-12 12:30N 48°59' W 126°35'2 4.0
2018-Jun-12 12:00N 48°58' W 126°33'3 4.1
2018-Jun-12 11:19N 48°56' W 126°32'2 5.1
2018-Jun-12 10:59N 48°54' W 126°32'6 6.2
2018-Jun-12 10:06N 48°48' W 126°30'1 6.1
2018-Jun-12 10:00N 48°48' W 126°29'2 3.4
2018-Jun-12 09:29N 48°49' W 126°31'2 4.2
2018-Jun-12 09:00N 48°51' W 126°32'3 6.1
2018-Jun-12 08:29N 48°54' W 126°31'6 5.0
2018-Jun-12 07:23N 48°59' W 126°33'7 1.3
2018-Jun-12 02:01N 48°52' W 126°33'0 6.9
2018-Jun-12 01:58N 48°52' W 126°33'3 3.9
2018-Jun-12 01:09N 48°55' W 126°32'2 5.0
2018-Jun-12 00:50N 48°57' W 126°32'1 2.0
2018-Jun-12 00:29N 48°57' W 126°32'4 2.4
2018-Jun-11 22:55N 48°53' W 126°31'3 2.3
2018-Jun-11 21:33N 48°50' W 126°32'0 4.3
2018-Jun-11 21:28N 48°50' W 126°32'3 5.4
2018-Jun-11 21:00N 48°53' W 126°32'2 3.3
2018-Jun-11 20:23N 48°51' W 126°33'3 7.3
2018-Jun-11 19:57N 48°54' W 126°32'3 6.0
2018-Jun-11 19:24N 48°51' W 126°34'3 4.0
2018-Jun-11 18:37N 48°48' W 126°31'1 4.0
2018-Jun-11 18:19N 48°49' W 126°32'2 6.8
2018-Jun-11 17:58N 48°52' W 126°33'2 3.2
2018-Jun-11 17:13N 48°49' W 126°33'2 6.9
2018-Jun-11 16:59N 48°48' W 126°31'3 6.6
2018-Jun-11 16:30N 48°47' W 126°26'2 2.6
2018-Jun-11 15:41N 48°48' W 126°29'2 4.3
2018-Jun-11 15:16N 48°46' W 126°29'3 5.0
2018-Jun-11 14:40N 48°47' W 126°25'2 4.8
2018-Jun-11 14:19N 48°46' W 126°25'1 2.2
2018-Jun-11 13:59N 48°46' W 126°25'1 2.6
2018-Jun-11 13:30N 48°47' W 126°27'2 4.8
2018-Jun-11 12:59N 48°46' W 126°24'3 6.6
2018-Jun-11 12:30N 48°46' W 126°19'4 6.8
2018-Jun-11 11:59N 48°43' W 126°15'  
Track history (hours):
 
Tides and Currents Weather Stations Pressure Air Temp Water Temp Dewpoint Dewpoint Depression Visibility Wind Speed Wind Dir Waves Ship Positions

Raw Spirit

Last reported at 2018-Jun-21 09:17 UTC. Time now 2018-Jun-22 02:00 UTC.
Position N 49°19' W 127°12'.

Length 42 m; draft 5.8 m.

Type: Fishing. MMSI: 316023833.

Date/timePositionNaut miles runAvg speedWind from/ knotsBaromVisibWave heightAir tempDewpointWater temp
2018-Jun-21 09:17N 49°19' W 127°12'1 2.4
2018-Jun-21 08:54N 49°19' W 127°11'1 2.7
2018-Jun-21 08:29N 49°18' W 127°10'2 2.8
2018-Jun-21 07:54N 49°17' W 127°09'1 2.7
2018-Jun-21 07:30N 49°16' W 127°07'0 0.9
2018-Jun-21 06:57N 49°16' W 127°07'3 4.6
2018-Jun-21 06:14N 49°13' W 127°03'17 9.3
2018-Jun-21 04:27N 48°60' W 126°50'4 8.3
2018-Jun-21 03:59N 48°60' W 126°44'4 8.4
2018-Jun-21 03:30N 48°56' W 126°40'5 8.6
2018-Jun-21 02:57N 48°57' W 126°33'1 1.5
2018-Jun-21 02:19N 48°56' W 126°32'2 3.1
2018-Jun-21 01:31N 48°54' W 126°32'0 4.8
2018-Jun-21 01:30N 48°54' W 126°32'1 2.0
2018-Jun-21 00:45N 48°53' W 126°33'5 8.6
2018-Jun-21 00:09N 48°48' W 126°30'3 9.2
2018-Jun-20 23:52N 48°47' W 126°26'3 8.3
2018-Jun-20 23:27N 48°46' W 126°21'4 8.2
2018-Jun-20 23:00N 48°44' W 126°16'4 8.4
2018-Jun-20 22:29N 48°40' W 126°14'2 4.2
2018-Jun-20 22:00N 48°38' W 126°13'1 2.5
2018-Jun-20 21:30N 48°39' W 126°13'1 1.3
2018-Jun-20 20:58N 48°38' W 126°13'7 9.3
2018-Jun-20 20:12N 48°31' W 126°11'2 9.3
2018-Jun-20 20:00N 48°30' W 126°11'6 7.3
2018-Jun-20 19:08N 48°23' W 126°09'0 3.8
2018-Jun-20 19:01N 48°24' W 126°09'2 2.4
2018-Jun-20 18:06N 48°26' W 126°10'2 3.3
2018-Jun-20 17:39N 48°27' W 126°10'11 6.9
2018-Jun-20 16:03N 48°18' W 126°00'4 9.6
2018-Jun-20 15:40N 48°16' W 125°56'2 8.8
2018-Jun-20 15:27N 48°17' W 125°53'4 8.1
2018-Jun-20 15:00N 48°14' W 125°50'6 8.2
2018-Jun-20 14:18N 48°15' W 125°41'3 8.3
2018-Jun-20 13:59N 48°14' W 125°45'1 2.2
2018-Jun-20 13:28N 48°15' W 125°46'2 2.7
2018-Jun-20 12:40N 48°15' W 125°43'1 3.6
2018-Jun-20 12:29N 48°15' W 125°42'1 1.1
2018-Jun-20 11:24N 48°15' W 125°44'2 3.6
2018-Jun-20 10:55N 48°15' W 125°41'2 3.9
2018-Jun-20 10:27N 48°15' W 125°44'3 5.7
2018-Jun-20 09:57N 48°14' W 125°48'2 2.8
2018-Jun-20 09:23N 48°14' W 125°45'3 7.1
2018-Jun-20 08:56N 48°17' W 125°43'2 5.0
2018-Jun-20 08:29N 48°15' W 125°42'1 2.1
2018-Jun-20 07:58N 48°16' W 125°43'4 5.7
2018-Jun-20 07:20N 48°15' W 125°48'2 4.9
2018-Jun-20 06:55N 48°16' W 125°51'3 1.5
2018-Jun-20 05:10N 48°15' W 125°47'1 2.4
2018-Jun-20 04:50N 48°14' W 125°46'2 2.7
2018-Jun-20 04:17N 48°15' W 125°44'1 2.7
2018-Jun-20 04:00N 48°15' W 125°43'2 2.8
2018-Jun-20 03:16N 48°16' W 125°41'2 5.1
2018-Jun-20 02:51N 48°15' W 125°44'1 1.4
2018-Jun-20 02:22N 48°15' W 125°43'1 1.3
2018-Jun-20 01:32N 48°15' W 125°44'0 6.9
2018-Jun-20 01:30N 48°15' W 125°44'3 6.5
2018-Jun-20 00:59N 48°17' W 125°41'1 0.6
2018-Jun-20 00:02N 48°17' W 125°40'0 5.4
2018-Jun-19 23:59N 48°17' W 125°40'2 3.3
2018-Jun-19 23:30N 48°15' W 125°42'2 1.9
2018-Jun-19 22:39N 48°15' W 125°44'1 6.4
2018-Jun-19 22:27N 48°15' W 125°42'3 5.3
2018-Jun-19 21:55N 48°14' W 125°46'3 5.1
2018-Jun-19 21:15N 48°15' W 125°41'2 4.1
2018-Jun-19 20:49N 48°17' W 125°43'4 8.3
2018-Jun-19 20:17N 48°14' W 125°48'1 1.1
2018-Jun-19 19:40N 48°14' W 125°47'1 4.3
2018-Jun-19 19:23N 48°15' W 125°46'3 5.0
2018-Jun-19 18:49N 48°16' W 125°42'4 4.3
2018-Jun-19 17:59N 48°14' W 125°46'1 1.4
2018-Jun-19 16:56N 48°15' W 125°44'3 3.3
2018-Jun-19 16:05N 48°17' W 125°46'0 6.8
2018-Jun-19 16:00N 48°18' W 125°47'4 1.0
2018-Jun-19 12:37N 48°15' W 125°43'1 3.6
2018-Jun-19 12:27N 48°15' W 125°44'1 0.8
2018-Jun-19 11:12N 48°15' W 125°45'1 6.0
2018-Jun-19 11:00N 48°16' W 125°43'0 0.5
2018-Jun-19 10:29N 48°15' W 125°43'2 4.3
2018-Jun-19 09:58N 48°16' W 125°47'1 1.3
2018-Jun-19 09:29N 48°15' W 125°46'2 3.2
2018-Jun-19 09:00N 48°16' W 125°44'2 3.1
2018-Jun-19 08:29N 48°18' W 125°44'6 4.4
2018-Jun-19 07:08N 48°17' W 125°53'3 4.2
2018-Jun-19 06:26N 48°20' W 125°52'1 2.3
2018-Jun-19 05:57N 48°21' W 125°53'2 2.7
2018-Jun-19 05:14N 48°20' W 125°51'1 5.9
2018-Jun-19 05:00N 48°20' W 125°53'2 4.8
2018-Jun-19 04:30N 48°21' W 125°56'1 1.8
2018-Jun-19 04:00N 48°20' W 125°55'1 2.7
2018-Jun-19 03:30N 48°20' W 125°53'2 3.1
2018-Jun-19 03:00N 48°20' W 125°51'2 3.6
2018-Jun-19 02:29N 48°20' W 125°54'3 6.4
2018-Jun-19 02:00N 48°18' W 125°57'4 7.2
2018-Jun-19 01:30N 48°20' W 126°02'4 8.2
2018-Jun-19 01:01N 48°23' W 126°06'1 2.0
2018-Jun-19 00:30N 48°24' W 126°07'2 3.0
2018-Jun-19 00:00N 48°25' W 126°08'0 0.7
2018-Jun-18 23:30N 48°24' W 126°08'4 8.1
2018-Jun-18 23:00N 48°21' W 126°05'3 6.0
2018-Jun-18 22:30N 48°22' W 126°00'1 2.7
2018-Jun-18 22:00N 48°23' W 125°59'1 2.5
2018-Jun-18 21:30N 48°24' W 125°58'4 7.2
2018-Jun-18 21:00N 48°23' W 125°52'1 1.5
2018-Jun-18 20:30N 48°23' W 125°54'1 2.5
2018-Jun-18 20:00N 48°22' W 125°55'1 2.7
2018-Jun-18 19:30N 48°21' W 125°55'1 2.6
2018-Jun-18 19:00N 48°19' W 125°55'0 0.8
2018-Jun-18 18:30N 48°19' W 125°55'2 3.4
2018-Jun-18 18:00N 48°18' W 125°57'1 1.5
2018-Jun-18 17:29N 48°19' W 125°57'1 2.6
2018-Jun-18 17:00N 48°19' W 125°55'1 2.5
2018-Jun-18 16:30N 48°20' W 125°53'2 3.3
2018-Jun-18 16:00N 48°21' W 125°52'2 3.3
2018-Jun-18 15:31N 48°20' W 125°53'3 5.2
2018-Jun-18 14:58N 48°18' W 125°56'4 7.4
2018-Jun-18 14:29N 48°16' W 125°52'2 3.7
2018-Jun-18 14:00N 48°18' W 125°52'2 4.3
2018-Jun-18 13:30N 48°19' W 125°53'2 4.1
2018-Jun-18 13:00N 48°21' W 125°55'0 1.0
2018-Jun-18 12:30N 48°21' W 125°56'1 2.3
2018-Jun-18 11:53N 48°20' W 125°54'2 2.9
2018-Jun-18 11:17N 48°20' W 125°52'1 2.1
2018-Jun-18 11:00N 48°21' W 125°52'1 2.5
2018-Jun-18 10:30N 48°20' W 125°53'0 0.5
2018-Jun-18 10:00N 48°20' W 125°53'3 6.1
2018-Jun-18 09:30N 48°20' W 125°58'5 9.4
2018-Jun-18 09:00N 48°22' W 126°04'3 4.9
2018-Jun-18 08:30N 48°24' W 126°02'4 8.5
2018-Jun-18 08:00N 48°24' W 125°56'3 6.7
2018-Jun-18 07:30N 48°21' W 125°54'2 3.3
2018-Jun-18 07:00N 48°20' W 125°54'4 7.4
2018-Jun-18 06:30N 48°16' W 125°52'1 2.4
2018-Jun-18 06:00N 48°17' W 125°52'3 5.5
2018-Jun-18 05:30N 48°20' W 125°54'1 2.5
2018-Jun-18 05:00N 48°21' W 125°54'1 2.3
2018-Jun-18 04:30N 48°21' W 125°56'1 2.7
2018-Jun-18 03:59N 48°20' W 125°57'1 2.0
2018-Jun-18 03:29N 48°19' W 125°57'1 2.4
2018-Jun-18 03:00N 48°19' W 125°55'1 2.5
2018-Jun-18 02:30N 48°20' W 125°53'2 3.1
2018-Jun-18 01:59N 48°21' W 125°51'1 2.5
2018-Jun-18 01:30N 48°20' W 125°53'2 4.0
2018-Jun-18 01:00N 48°19' W 125°56'2 3.9
2018-Jun-18 00:30N 48°20' W 125°53'3 5.3
2018-Jun-18 00:00N 48°23' W 125°54'1 2.1
2018-Jun-17 23:30N 48°23' W 125°56'3 2.5
2018-Jun-17 22:30N 48°21' W 125°53'1 1.3
2018-Jun-17 22:00N 48°21' W 125°54'3 5.8
2018-Jun-17 21:30N 48°24' W 125°56'1 1.1
2018-Jun-17 21:00N 48°24' W 125°55'3 5.4
2018-Jun-17 20:30N 48°21' W 125°54'2 3.9
2018-Jun-17 20:00N 48°19' W 125°55'3 5.7
2018-Jun-17 19:30N 48°17' W 125°56'4 7.3
2018-Jun-17 19:00N 48°19' W 125°60'4 7.3
2018-Jun-17 18:30N 48°23' W 125°60'3 5.0
2018-Jun-17 17:57N 48°23' W 125°55'3 6.4
2018-Jun-17 17:30N 48°20' W 125°55'2 3.1
2018-Jun-17 17:00N 48°19' W 125°56'1 1.8
2018-Jun-17 16:27N 48°19' W 125°54'1 3.2
2018-Jun-17 16:00N 48°20' W 125°52'2 3.0
2018-Jun-17 15:30N 48°18' W 125°53'2 3.4
2018-Jun-17 15:00N 48°19' W 125°55'5 9.1
2018-Jun-17 14:30N 48°20' W 126°02'4 7.2
2018-Jun-17 14:00N 48°23' W 126°06'1 2.3
2018-Jun-17 13:30N 48°24' W 126°07'1 3.1
2018-Jun-17 13:00N 48°25' W 126°08'1 2.9
2018-Jun-17 12:30N 48°26' W 126°09'1 2.2
2018-Jun-17 12:00N 48°27' W 126°11'4 7.3
2018-Jun-17 11:30N 48°23' W 126°09'3 6.0
2018-Jun-17 11:00N 48°22' W 126°04'510.1
2018-Jun-17 10:30N 48°26' W 125°59'510.9
2018-Jun-17 10:00N 48°30' W 125°53'510.7
2018-Jun-17 09:30N 48°33' W 125°46'510.6
2018-Jun-17 09:00N 48°36' W 125°40'510.9
2018-Jun-17 08:30N 48°39' W 125°33'510.9
2018-Jun-17 08:00N 48°42' W 125°27'611.0
2018-Jun-17 07:30N 48°46' W 125°20'511.0
2018-Jun-17 07:00N 48°48' W 125°13'611.1
2018-Jun-17 06:30N 48°52' W 125°07'1510.8
2018-Jun-17 05:08N 49°03' W 124°51'211.1
2018-Jun-17 05:00N 49°04' W 124°50'511.0
2018-Jun-17 04:30N 49°10' W 124°48'4 8.0
2018-Jun-17 04:00N 49°14' W 124°49'0 0.1
2018-Jun-17 03:30N 49°14' W 124°49'0 0.1
2018-Jun-17 03:00N 49°14' W 124°49'0 0.0
2018-Jun-17 02:28N 49°14' W 124°49'0 0.0
2018-Jun-17 02:00N 49°14' W 124°49'0 0.1
2018-Jun-17 01:30N 49°14' W 124°49'0 0.0
2018-Jun-17 01:00N 49°14' W 124°49'0 0.0
2018-Jun-17 00:30N 49°14' W 124°49'0 0.1
2018-Jun-16 23:57N 49°14' W 124°49'0 0.0
2018-Jun-16 23:30N 49°14' W 124°49'0 0.1
2018-Jun-16 22:57N 49°14' W 124°49'0 0.0
2018-Jun-16 22:30N 49°14' W 124°49'0 0.0
2018-Jun-16 22:00N 49°14' W 124°49'0 0.1
2018-Jun-16 21:30N 49°14' W 124°49'0 0.0
2018-Jun-16 21:00N 49°14' W 124°49'0 0.0
2018-Jun-16 20:29N 49°14' W 124°49'0 0.1
2018-Jun-16 20:00N 49°14' W 124°49'0 0.1
2018-Jun-16 19:30N 49°14' W 124°49'0 0.1
2018-Jun-16 18:59N 49°14' W 124°49'0 0.0
2018-Jun-16 18:29N 49°14' W 124°49'0 0.0
2018-Jun-16 18:00N 49°14' W 124°49'0 0.1
2018-Jun-16 17:30N 49°14' W 124°49'0 0.0
2018-Jun-16 17:00N 49°14' W 124°49'0 0.0
2018-Jun-16 16:30N 49°14' W 124°49'0 0.0
2018-Jun-16 15:58N 49°14' W 124°49'0 0.0
2018-Jun-16 15:30N 49°14' W 124°49'0 0.0
2018-Jun-16 15:00N 49°14' W 124°49'0 0.0
2018-Jun-16 14:29N 49°14' W 124°49'0 0.1
2018-Jun-16 14:00N 49°14' W 124°49'0 0.0
2018-Jun-16 13:30N 49°14' W 124°49'0 0.1
2018-Jun-16 13:00N 49°14' W 124°49'0 0.0
2018-Jun-16 12:30N 49°14' W 124°49'0 0.1
2018-Jun-16 12:00N 49°14' W 124°49'0 0.0
2018-Jun-16 11:30N 49°14' W 124°49'0 0.0
2018-Jun-16 11:00N 49°14' W 124°49'0 0.1
2018-Jun-16 10:30N 49°14' W 124°49'0 0.0
2018-Jun-16 10:00N 49°14' W 124°49'0 0.1
2018-Jun-16 09:30N 49°14' W 124°49'0 0.1
2018-Jun-16 09:00N 49°14' W 124°49'0 0.0
2018-Jun-16 08:30N 49°14' W 124°49'0 0.1
2018-Jun-16 08:00N 49°14' W 124°49'0 0.0
2018-Jun-16 07:30N 49°14' W 124°49'0 0.0
2018-Jun-16 07:00N 49°14' W 124°49'0 0.0
2018-Jun-16 06:30N 49°14' W 124°49'0 0.1
2018-Jun-16 06:00N 49°14' W 124°49'0 0.0
2018-Jun-16 05:30N 49°14' W 124°49'0 0.1
2018-Jun-16 05:00N 49°14' W 124°49'0 0.1
2018-Jun-16 04:30N 49°14' W 124°49'0 0.1
2018-Jun-16 04:00N 49°14' W 124°49'0 0.0
2018-Jun-16 03:30N 49°14' W 124°49'0 0.1
2018-Jun-16 02:59N 49°14' W 124°49'0 0.1
2018-Jun-16 02:30N 49°14' W 124°49'0 0.1
2018-Jun-16 02:00N 49°14' W 124°49'0 0.0
2018-Jun-16 01:30N 49°14' W 124°49'0 0.1
2018-Jun-16 00:58N 49°14' W 124°49'0 0.1
2018-Jun-16 00:30N 49°14' W 124°49'0 0.0
2018-Jun-16 00:00N 49°14' W 124°49'0 0.0
2018-Jun-15 23:30N 49°14' W 124°49'3 5.1
2018-Jun-15 23:00N 49°11' W 124°49'18 9.7
2018-Jun-15 21:08N 48°55' W 125°03'210.6
2018-Jun-15 20:59N 48°54' W 125°04'510.8
2018-Jun-15 20:30N 48°52' W 125°11'611.1
2018-Jun-15 20:00N 48°50' W 125°20'510.4
2018-Jun-15 19:30N 48°50' W 125°27'510.9
2018-Jun-15 19:00N 48°51' W 125°36'510.8
2018-Jun-15 18:30N 48°52' W 125°43'510.4
2018-Jun-15 18:00N 48°54' W 125°51'510.3
2018-Jun-15 17:30N 48°54' W 125°59'510.2
2018-Jun-15 17:00N 48°54' W 126°07'5 9.8
2018-Jun-15 16:30N 48°55' W 126°14'510.3
2018-Jun-15 16:00N 48°56' W 126°22'810.7
2018-Jun-15 15:17N 48°57' W 126°34'5 4.2
2018-Jun-15 14:04N 48°58' W 126°41'0 2.7
2018-Jun-15 13:58N 48°58' W 126°41'2 1.1
2018-Jun-15 12:29N 48°59' W 126°43'6 1.7
2018-Jun-15 09:04N 49°01' W 126°35'1 3.2
2018-Jun-15 08:41N 49°00' W 126°37'3 0.2
2018-Jun-14 21:24N 48°58' W 126°33'4 1.0
2018-Jun-14 17:51N 48°59' W 126°39'1 2.7
2018-Jun-14 17:29N 48°59' W 126°38'0 0.1
2018-Jun-14 16:46N 48°59' W 126°38'4 1.1
2018-Jun-14 12:59N 48°59' W 126°44'3 0.3
2018-Jun-14 01:25N 48°58' W 126°39'3 5.1
2018-Jun-14 00:51N 48°58' W 126°35'2 0.4
2018-Jun-13 18:46N 48°57' W 126°38'2 5.8
2018-Jun-13 18:21N 48°56' W 126°34'2 5.4
2018-Jun-13 17:59N 48°56' W 126°31'3 5.1
2018-Jun-13 17:26N 48°58' W 126°33'3 0.3
2018-Jun-13 09:45N 49°00' W 126°36'5 3.7
2018-Jun-13 08:21N 48°56' W 126°32'0 0.9
2018-Jun-13 07:49N 48°56' W 126°32'3 7.4
2018-Jun-13 07:24N 48°58' W 126°33'4 0.6
2018-Jun-13 00:20N 48°58' W 126°40'2 5.7
2018-Jun-12 23:55N 48°59' W 126°37'1 1.7
2018-Jun-12 23:23N 48°58' W 126°37'2 4.3
2018-Jun-12 23:00N 48°59' W 126°35'5 4.4
2018-Jun-12 21:52N 48°58' W 126°42'3 7.8
2018-Jun-12 21:30N 48°59' W 126°38'3 5.4
2018-Jun-12 20:56N 48°58' W 126°34'1 2.1
2018-Jun-12 20:29N 48°57' W 126°34'1 1.4
2018-Jun-12 20:00N 48°58' W 126°34'1 2.4
2018-Jun-12 19:29N 48°58' W 126°36'2 4.4
2018-Jun-12 18:56N 48°59' W 126°39'4 4.9
2018-Jun-12 18:12N 48°57' W 126°35'1 4.6
2018-Jun-12 18:00N 48°57' W 126°33'1 1.6
2018-Jun-12 17:08N 48°58' W 126°34'4 3.9
2018-Jun-12 16:11N 48°55' W 126°33'1 5.2
2018-Jun-12 16:00N 48°56' W 126°33'2 2.0
2018-Jun-12 14:57N 48°56' W 126°36'1 3.1
2018-Jun-12 14:30N 48°55' W 126°34'1 1.7
2018-Jun-12 13:59N 48°54' W 126°33'4 5.1
2018-Jun-12 13:13N 48°58' W 126°34'2 8.0
2018-Jun-12 12:57N 49°00' W 126°36'1 2.2
2018-Jun-12 12:30N 48°59' W 126°35'2 4.0
2018-Jun-12 12:00N 48°58' W 126°33'3 4.1
2018-Jun-12 11:19N 48°56' W 126°32'2 5.1
2018-Jun-12 10:59N 48°54' W 126°32'6 6.2
2018-Jun-12 10:06N 48°48' W 126°30'1 6.1
2018-Jun-12 10:00N 48°48' W 126°29'2 3.4
2018-Jun-12 09:29N 48°49' W 126°31'2 4.2
2018-Jun-12 09:00N 48°51' W 126°32'3 6.1
2018-Jun-12 08:29N 48°54' W 126°31'6 5.0
2018-Jun-12 07:23N 48°59' W 126°33'7 1.3
2018-Jun-12 02:01N 48°52' W 126°33'0 6.9
2018-Jun-12 01:58N 48°52' W 126°33'3 3.9
2018-Jun-12 01:09N 48°55' W 126°32'2 5.0
2018-Jun-12 00:50N 48°57' W 126°32'1 2.0
2018-Jun-12 00:29N 48°57' W 126°32'4 2.4
2018-Jun-11 22:55N 48°53' W 126°31'3 2.3
2018-Jun-11 21:33N 48°50' W 126°32'0 4.3
2018-Jun-11 21:28N 48°50' W 126°32'3 5.4
2018-Jun-11 21:00N 48°53' W 126°32'2 3.3
2018-Jun-11 20:23N 48°51' W 126°33'3 7.3
2018-Jun-11 19:57N 48°54' W 126°32'3 6.0
2018-Jun-11 19:24N 48°51' W 126°34'3 4.0
2018-Jun-11 18:37N 48°48' W 126°31'1 4.0
2018-Jun-11 18:19N 48°49' W 126°32'2 6.8
2018-Jun-11 17:58N 48°52' W 126°33'2 3.2
2018-Jun-11 17:13N 48°49' W 126°33'2 6.9
2018-Jun-11 16:59N 48°48' W 126°31'3 6.6
2018-Jun-11 16:30N 48°47' W 126°26'2 2.6
2018-Jun-11 15:41N 48°48' W 126°29'2 4.3
2018-Jun-11 15:16N 48°46' W 126°29'3 5.0
2018-Jun-11 14:40N 48°47' W 126°25'2 4.8
2018-Jun-11 14:19N 48°46' W 126°25'1 2.2
2018-Jun-11 13:59N 48°46' W 126°25'1 2.6
2018-Jun-11 13:30N 48°47' W 126°27'2 4.8
2018-Jun-11 12:59N 48°46' W 126°24'3 6.6
2018-Jun-11 12:30N 48°46' W 126°19'4 6.8
2018-Jun-11 11:59N 48°43' W 126°15'  

Dump ship's entire track history